sensor_id;sensor_type;location;lat;lon;timestamp;temperature;humidity
20795;DHT22;28087;-33.874;151.240;2022-07-06T00:02:22;16.40;99.90
20795;DHT22;28087;-33.874;151.240;2022-07-06T00:05:16;16.30;99.90
20795;DHT22;28087;-33.874;151.240;2022-07-06T00:07:55;16.30;99.90
20795;DHT22;28087;-33.874;151.240;2022-07-06T00:10:38;16.30;99.90
20795;DHT22;28087;-33.874;151.240;2022-07-06T00:13:20;16.20;99.90
20795;DHT22;28087;-33.874;151.240;2022-07-06T00:15:58;16.20;99.90
20795;DHT22;28087;-33.874;151.240;2022-07-06T00:18:38;16.20;99.90
20795;DHT22;28087;-33.874;151.240;2022-07-06T00:21:15;16.10;99.90
20795;DHT22;28087;-33.874;151.240;2022-07-06T00:23:51;16.10;99.90
20795;DHT22;28087;-33.874;151.240;2022-07-06T00:26:29;16.10;99.90
20795;DHT22;28087;-33.874;151.240;2022-07-06T00:29:06;16.20;99.90
20795;DHT22;28087;-33.874;151.240;2022-07-06T00:31:43;16.20;99.90
20795;DHT22;28087;-33.874;151.240;2022-07-06T00:36:58;16.20;99.90
20795;DHT22;28087;-33.874;151.240;2022-07-06T00:39:37;16.30;99.90
20795;DHT22;28087;-33.874;151.240;2022-07-06T00:42:19;16.20;99.90
20795;DHT22;28087;-33.874;151.240;2022-07-06T00:44:54;16.20;99.90
20795;DHT22;28087;-33.874;151.240;2022-07-06T00:47:35;16.20;99.90
20795;DHT22;28087;-33.874;151.240;2022-07-06T00:50:13;16.20;99.90
20795;DHT22;28087;-33.874;151.240;2022-07-06T00:52:52;16.20;99.90
20795;DHT22;28087;-33.874;151.240;2022-07-06T00:55:32;16.30;99.90
20795;DHT22;28087;-33.874;151.240;2022-07-06T01:06:13;16.20;99.90
20795;DHT22;28087;-33.874;151.240;2022-07-06T01:08:49;16.10;99.90
20795;DHT22;28087;-33.874;151.240;2022-07-06T01:11:26;16.10;99.90
20795;DHT22;28087;-33.874;151.240;2022-07-06T01:14:05;16.10;99.90
20795;DHT22;28087;-33.874;151.240;2022-07-06T01:16:48;16.20;99.90
20795;DHT22;28087;-33.874;151.240;2022-07-06T01:19:26;16.20;99.90
20795;DHT22;28087;-33.874;151.240;2022-07-06T01:22:06;16.20;99.90
20795;DHT22;28087;-33.874;151.240;2022-07-06T01:24:51;16.20;99.90
20795;DHT22;28087;-33.874;151.240;2022-07-06T01:27:31;16.20;99.90
20795;DHT22;28087;-33.874;151.240;2022-07-06T01:30:11;16.20;99.90
20795;DHT22;28087;-33.874;151.240;2022-07-06T01:32:53;16.20;99.90
20795;DHT22;28087;-33.874;151.240;2022-07-06T01:35:36;16.20;99.90
20795;DHT22;28087;-33.874;151.240;2022-07-06T01:46:14;16.40;99.90
20795;DHT22;28087;-33.874;151.240;2022-07-06T01:48:53;16.30;99.90
20795;DHT22;28087;-33.874;151.240;2022-07-06T01:51:31;16.30;99.90
20795;DHT22;28087;-33.874;151.240;2022-07-06T01:54:10;16.40;99.90
20795;DHT22;28087;-33.874;151.240;2022-07-06T01:56:50;16.40;99.90
20795;DHT22;28087;-33.874;151.240;2022-07-06T01:59:28;16.40;99.90
20795;DHT22;28087;-33.874;151.240;2022-07-06T02:02:11;16.40;99.90
20795;DHT22;28087;-33.874;151.240;2022-07-06T02:04:53;16.20;99.90
20795;DHT22;28087;-33.874;151.240;2022-07-06T02:13:33;16.20;99.90
20795;DHT22;28087;-33.874;151.240;2022-07-06T02:16:13;16.20;99.90
20795;DHT22;28087;-33.874;151.240;2022-07-06T02:18:53;16.20;99.90
20795;DHT22;28087;-33.874;151.240;2022-07-06T02:21:33;16.20;99.90
20795;DHT22;28087;-33.874;151.240;2022-07-06T02:24:16;16.20;99.90
20795;DHT22;28087;-33.874;151.240;2022-07-06T02:26:54;16.20;99.90
20795;DHT22;28087;-33.874;151.240;2022-07-06T02:29:32;16.10;99.90
20795;DHT22;28087;-33.874;151.240;2022-07-06T02:32:14;16.20;99.90
20795;DHT22;28087;-33.874;151.240;2022-07-06T02:34:57;16.20;99.90
20795;DHT22;28087;-33.874;151.240;2022-07-06T02:37:38;16.30;99.90
20795;DHT22;28087;-33.874;151.240;2022-07-06T02:40:16;16.20;99.90
20795;DHT22;28087;-33.874;151.240;2022-07-06T02:42:59;16.20;99.90
20795;DHT22;28087;-33.874;151.240;2022-07-06T02:45:47;16.20;99.90
20795;DHT22;28087;-33.874;151.240;2022-07-06T02:48:25;16.20;99.90
20795;DHT22;28087;-33.874;151.240;2022-07-06T02:51:01;16.10;99.90
20795;DHT22;28087;-33.874;151.240;2022-07-06T02:56:22;16.10;99.90
20795;DHT22;28087;-33.874;151.240;2022-07-06T02:59:03;16.10;99.90
20795;DHT22;28087;-33.874;151.240;2022-07-06T03:01:49;16.20;99.90
20795;DHT22;28087;-33.874;151.240;2022-07-06T03:04:29;16.20;99.90
20795;DHT22;28087;-33.874;151.240;2022-07-06T03:07:11;16.20;99.90
20795;DHT22;28087;-33.874;151.240;2022-07-06T03:09:53;16.20;99.90
20795;DHT22;28087;-33.874;151.240;2022-07-06T03:12:34;16.20;99.90
20795;DHT22;28087;-33.874;151.240;2022-07-06T03:15:14;16.30;99.90
20795;DHT22;28087;-33.874;151.240;2022-07-06T03:18:01;16.20;99.90
20795;DHT22;28087;-33.874;151.240;2022-07-06T03:20:49;16.20;99.90
20795;DHT22;28087;-33.874;151.240;2022-07-06T03:23:27;16.20;99.90
20795;DHT22;28087;-33.874;151.240;2022-07-06T03:26:12;16.20;99.90
20795;DHT22;28087;-33.874;151.240;2022-07-06T03:29:02;16.20;99.90
20795;DHT22;28087;-33.874;151.240;2022-07-06T03:31:49;16.20;99.90
20795;DHT22;28087;-33.874;151.240;2022-07-06T03:34:35;16.10;99.90
20795;DHT22;28087;-33.874;151.240;2022-07-06T03:37:16;16.10;99.90
20795;DHT22;28087;-33.874;151.240;2022-07-06T03:39:56;16.10;99.90
20795;DHT22;28087;-33.874;151.240;2022-07-06T03:42:41;16.10;99.90
20795;DHT22;28087;-33.874;151.240;2022-07-06T03:45:23;16.20;99.90
20795;DHT22;28087;-33.874;151.240;2022-07-06T03:48:11;16.20;99.90
20795;DHT22;28087;-33.874;151.240;2022-07-06T03:50:49;16.20;99.90
20795;DHT22;28087;-33.874;151.240;2022-07-06T03:53:31;16.10;99.90
20795;DHT22;28087;-33.874;151.240;2022-07-06T04:01:53;16.20;99.90
20795;DHT22;28087;-33.874;151.240;2022-07-06T04:07:17;16.30;99.90
20795;DHT22;28087;-33.874;151.240;2022-07-06T04:09:57;16.20;99.90
20795;DHT22;28087;-33.874;151.240;2022-07-06T04:15:21;16.10;99.90
20795;DHT22;28087;-33.874;151.240;2022-07-06T04:18:04;16.10;99.90
20795;DHT22;28087;-33.874;151.240;2022-07-06T04:23:39;16.10;99.90
20795;DHT22;28087;-33.874;151.240;2022-07-06T04:26:15;16.10;99.90
20795;DHT22;28087;-33.874;151.240;2022-07-06T04:28:52;16.10;99.90
20795;DHT22;28087;-33.874;151.240;2022-07-06T04:31:30;16.20;99.90
20795;DHT22;28087;-33.874;151.240;2022-07-06T04:34:06;16.20;99.90
20795;DHT22;28087;-33.874;151.240;2022-07-06T04:36:49;16.20;99.90
20795;DHT22;28087;-33.874;151.240;2022-07-06T04:39:51;16.20;99.90
20795;DHT22;28087;-33.874;151.240;2022-07-06T04:42:31;16.30;99.90
20795;DHT22;28087;-33.874;151.240;2022-07-06T04:45:08;16.30;99.90
20795;DHT22;28087;-33.874;151.240;2022-07-06T04:47:52;16.30;99.90
20795;DHT22;28087;-33.874;151.240;2022-07-06T04:50:32;16.30;99.90
20795;DHT22;28087;-33.874;151.240;2022-07-06T04:53:17;16.30;99.90
20795;DHT22;28087;-33.874;151.240;2022-07-06T04:56:00;16.30;99.90
20795;DHT22;28087;-33.874;151.240;2022-07-06T04:58:41;16.30;99.90
20795;DHT22;28087;-33.874;151.240;2022-07-06T05:01:23;16.30;99.90
20795;DHT22;28087;-33.874;151.240;2022-07-06T05:04:02;16.30;99.90
20795;DHT22;28087;-33.874;151.240;2022-07-06T05:06:52;16.30;99.90
20795;DHT22;28087;-33.874;151.240;2022-07-06T05:09:38;16.30;99.90
20795;DHT22;28087;-33.874;151.240;2022-07-06T05:12:26;16.30;99.90
20795;DHT22;28087;-33.874;151.240;2022-07-06T05:15:11;16.30;99.90
20795;DHT22;28087;-33.874;151.240;2022-07-06T05:17:53;16.40;99.90
20795;DHT22;28087;-33.874;151.240;2022-07-06T05:20:32;16.30;99.90
20795;DHT22;28087;-33.874;151.240;2022-07-06T05:23:08;16.30;99.90
20795;DHT22;28087;-33.874;151.240;2022-07-06T05:25:49;16.20;99.90
20795;DHT22;28087;-33.874;151.240;2022-07-06T05:28:32;16.20;99.90
20795;DHT22;28087;-33.874;151.240;2022-07-06T05:31:21;16.20;99.90
20795;DHT22;28087;-33.874;151.240;2022-07-06T05:37:01;16.10;99.90
20795;DHT22;28087;-33.874;151.240;2022-07-06T05:42:42;16.10;99.90
20795;DHT22;28087;-33.874;151.240;2022-07-06T05:45:24;16.10;99.90
20795;DHT22;28087;-33.874;151.240;2022-07-06T05:48:01;16.20;99.90
20795;DHT22;28087;-33.874;151.240;2022-07-06T05:50:54;16.20;99.90
20795;DHT22;28087;-33.874;151.240;2022-07-06T05:54:05;16.20;99.90
20795;DHT22;28087;-33.874;151.240;2022-07-06T05:56:43;16.20;99.90
20795;DHT22;28087;-33.874;151.240;2022-07-06T05:59:22;16.20;99.90
20795;DHT22;28087;-33.874;151.240;2022-07-06T06:02:01;16.30;99.90
20795;DHT22;28087;-33.874;151.240;2022-07-06T06:04:38;16.30;99.90
20795;DHT22;28087;-33.874;151.240;2022-07-06T06:09:53;16.40;99.90
20795;DHT22;28087;-33.874;151.240;2022-07-06T06:12:30;16.40;99.90
20795;DHT22;28087;-33.874;151.240;2022-07-06T06:15:17;16.40;99.90
20795;DHT22;28087;-33.874;151.240;2022-07-06T06:17:57;16.40;99.90
20795;DHT22;28087;-33.874;151.240;2022-07-06T06:20:37;16.40;99.90
20795;DHT22;28087;-33.874;151.240;2022-07-06T06:23:18;16.30;99.90
20795;DHT22;28087;-33.874;151.240;2022-07-06T06:25:55;16.40;99.90
20795;DHT22;28087;-33.874;151.240;2022-07-06T06:28:43;16.30;99.90
20795;DHT22;28087;-33.874;151.240;2022-07-06T06:31:23;16.40;99.90
20795;DHT22;28087;-33.874;151.240;2022-07-06T06:34:06;16.30;99.90
20795;DHT22;28087;-33.874;151.240;2022-07-06T06:36:45;16.30;99.90
20795;DHT22;28087;-33.874;151.240;2022-07-06T06:39:22;16.20;99.90
20795;DHT22;28087;-33.874;151.240;2022-07-06T06:50:08;16.20;99.90
20795;DHT22;28087;-33.874;151.240;2022-07-06T06:55:27;15.90;99.90
20795;DHT22;28087;-33.874;151.240;2022-07-06T07:00:47;16.00;99.90
20795;DHT22;28087;-33.874;151.240;2022-07-06T07:03:25;15.90;99.90
20795;DHT22;28087;-33.874;151.240;2022-07-06T07:06:04;16.00;99.90
20795;DHT22;28087;-33.874;151.240;2022-07-06T07:08:40;16.00;99.90
20795;DHT22;28087;-33.874;151.240;2022-07-06T07:11:19;16.00;99.90
20795;DHT22;28087;-33.874;151.240;2022-07-06T07:13:58;15.90;99.90
20795;DHT22;28087;-33.874;151.240;2022-07-06T07:16:41;15.80;99.90
20795;DHT22;28087;-33.874;151.240;2022-07-06T07:19:32;15.80;99.90
20795;DHT22;28087;-33.874;151.240;2022-07-06T07:22:12;15.80;99.90
20795;DHT22;28087;-33.874;151.240;2022-07-06T07:24:49;15.80;99.90
20795;DHT22;28087;-33.874;151.240;2022-07-06T07:27:25;15.80;99.90
20795;DHT22;28087;-33.874;151.240;2022-07-06T07:30:02;15.70;99.90
20795;DHT22;28087;-33.874;151.240;2022-07-06T07:32:42;15.70;99.90
20795;DHT22;28087;-33.874;151.240;2022-07-06T07:35:24;15.70;99.90
20795;DHT22;28087;-33.874;151.240;2022-07-06T07:38:01;15.80;99.90
20795;DHT22;28087;-33.874;151.240;2022-07-06T07:40:39;15.80;99.90
20795;DHT22;28087;-33.874;151.240;2022-07-06T07:43:15;15.70;99.90
20795;DHT22;28087;-33.874;151.240;2022-07-06T07:45:51;15.70;99.90
20795;DHT22;28087;-33.874;151.240;2022-07-06T07:48:34;15.70;99.90
20795;DHT22;28087;-33.874;151.240;2022-07-06T07:51:12;15.70;99.90
20795;DHT22;28087;-33.874;151.240;2022-07-06T07:53:48;15.70;99.90
20795;DHT22;28087;-33.874;151.240;2022-07-06T07:56:27;15.80;99.90
20795;DHT22;28087;-33.874;151.240;2022-07-06T07:59:03;15.80;99.90
20795;DHT22;28087;-33.874;151.240;2022-07-06T08:01:41;15.80;99.90
20795;DHT22;28087;-33.874;151.240;2022-07-06T08:04:18;15.80;99.90
20795;DHT22;28087;-33.874;151.240;2022-07-06T08:06:59;15.80;99.90
20795;DHT22;28087;-33.874;151.240;2022-07-06T08:09:49;15.70;99.90
20795;DHT22;28087;-33.874;151.240;2022-07-06T08:12:25;15.70;99.90
20795;DHT22;28087;-33.874;151.240;2022-07-06T08:15:06;15.70;99.90
20795;DHT22;28087;-33.874;151.240;2022-07-06T08:17:46;15.70;99.90
20795;DHT22;28087;-33.874;151.240;2022-07-06T08:20:29;15.70;99.90
20795;DHT22;28087;-33.874;151.240;2022-07-06T08:23:28;15.70;99.90
20795;DHT22;28087;-33.874;151.240;2022-07-06T08:42:32;16.10;99.90
20795;DHT22;28087;-33.874;151.240;2022-07-06T08:47:51;15.90;99.90
20795;DHT22;28087;-33.874;151.240;2022-07-06T08:50:39;15.90;99.90
20795;DHT22;28087;-33.874;151.240;2022-07-06T08:53:15;15.90;99.90
20795;DHT22;28087;-33.874;151.240;2022-07-06T08:55:56;15.90;99.90
20795;DHT22;28087;-33.874;151.240;2022-07-06T08:58:50;15.90;99.90
20795;DHT22;28087;-33.874;151.240;2022-07-06T09:01:26;15.90;99.90
20795;DHT22;28087;-33.874;151.240;2022-07-06T09:04:10;15.90;99.90
20795;DHT22;28087;-33.874;151.240;2022-07-06T09:06:50;15.80;99.90
20795;DHT22;28087;-33.874;151.240;2022-07-06T09:09:31;15.80;99.90
20795;DHT22;28087;-33.874;151.240;2022-07-06T09:12:15;15.80;99.90
20795;DHT22;28087;-33.874;151.240;2022-07-06T09:14:53;15.80;99.90
20795;DHT22;28087;-33.874;151.240;2022-07-06T09:17:36;15.70;99.90
20795;DHT22;28087;-33.874;151.240;2022-07-06T09:20:13;15.80;99.90
20795;DHT22;28087;-33.874;151.240;2022-07-06T09:22:58;15.80;99.90
20795;DHT22;28087;-33.874;151.240;2022-07-06T09:25:53;15.80;99.90
20795;DHT22;28087;-33.874;151.240;2022-07-06T09:28:48;15.80;99.90
20795;DHT22;28087;-33.874;151.240;2022-07-06T09:31:28;15.80;99.90
20795;DHT22;28087;-33.874;151.240;2022-07-06T09:34:06;15.80;99.90
20795;DHT22;28087;-33.874;151.240;2022-07-06T09:36:48;15.80;99.90
20795;DHT22;28087;-33.874;151.240;2022-07-06T09:39:32;15.80;99.90
20795;DHT22;28087;-33.874;151.240;2022-07-06T09:42:27;15.80;99.90
20795;DHT22;28087;-33.874;151.240;2022-07-06T09:45:20;15.80;99.90
20795;DHT22;28087;-33.874;151.240;2022-07-06T09:48:07;15.90;99.90
20795;DHT22;28087;-33.874;151.240;2022-07-06T09:50:50;15.90;99.90
20795;DHT22;28087;-33.874;151.240;2022-07-06T09:53:54;15.90;99.90
20795;DHT22;28087;-33.874;151.240;2022-07-06T09:56:40;15.90;99.90
20795;DHT22;28087;-33.874;151.240;2022-07-06T09:59:23;15.80;99.90
20795;DHT22;28087;-33.874;151.240;2022-07-06T10:02:05;15.80;99.90
20795;DHT22;28087;-33.874;151.240;2022-07-06T10:04:43;15.90;99.90
20795;DHT22;28087;-33.874;151.240;2022-07-06T10:07:32;15.90;99.90
20795;DHT22;28087;-33.874;151.240;2022-07-06T10:10:10;15.90;99.90
20795;DHT22;28087;-33.874;151.240;2022-07-06T10:12:47;15.90;99.90
20795;DHT22;28087;-33.874;151.240;2022-07-06T10:15:26;15.90;99.90
20795;DHT22;28087;-33.874;151.240;2022-07-06T10:18:09;15.90;99.90
20795;DHT22;28087;-33.874;151.240;2022-07-06T10:20:47;15.90;99.90
20795;DHT22;28087;-33.874;151.240;2022-07-06T10:23:26;15.90;99.90
20795;DHT22;28087;-33.874;151.240;2022-07-06T10:26:12;15.90;99.90
20795;DHT22;28087;-33.874;151.240;2022-07-06T10:28:50;15.90;99.90
20795;DHT22;28087;-33.874;151.240;2022-07-06T10:31:28;15.90;99.90
20795;DHT22;28087;-33.874;151.240;2022-07-06T10:34:12;15.90;99.90
20795;DHT22;28087;-33.874;151.240;2022-07-06T10:36:52;15.90;99.90
20795;DHT22;28087;-33.874;151.240;2022-07-06T10:39:42;15.90;99.90
20795;DHT22;28087;-33.874;151.240;2022-07-06T10:42:47;16.00;99.90
20795;DHT22;28087;-33.874;151.240;2022-07-06T10:45:52;15.90;99.90
20795;DHT22;28087;-33.874;151.240;2022-07-06T10:48:46;16.00;99.90
20795;DHT22;28087;-33.874;151.240;2022-07-06T10:51:27;15.90;99.90
20795;DHT22;28087;-33.874;151.240;2022-07-06T10:54:10;16.00;99.90
20795;DHT22;28087;-33.874;151.240;2022-07-06T10:56:50;16.00;99.90
20795;DHT22;28087;-33.874;151.240;2022-07-06T10:59:30;16.00;99.90
20795;DHT22;28087;-33.874;151.240;2022-07-06T11:02:15;16.00;99.90
20795;DHT22;28087;-33.874;151.240;2022-07-06T11:04:55;16.00;99.90
20795;DHT22;28087;-33.874;151.240;2022-07-06T11:07:49;16.00;99.90
20795;DHT22;28087;-33.874;151.240;2022-07-06T11:10:28;16.00;99.90
20795;DHT22;28087;-33.874;151.240;2022-07-06T11:13:28;16.00;99.90
20795;DHT22;28087;-33.874;151.240;2022-07-06T11:16:04;16.00;99.90
20795;DHT22;28087;-33.874;151.240;2022-07-06T11:18:47;16.00;99.90
20795;DHT22;28087;-33.874;151.240;2022-07-06T11:21:33;16.10;99.90
20795;DHT22;28087;-33.874;151.240;2022-07-06T11:24:20;16.00;99.90
20795;DHT22;28087;-33.874;151.240;2022-07-06T11:26:58;16.10;99.90
20795;DHT22;28087;-33.874;151.240;2022-07-06T11:29:35;16.00;99.90
20795;DHT22;28087;-33.874;151.240;2022-07-06T11:32:28;16.10;99.90
20795;DHT22;28087;-33.874;151.240;2022-07-06T11:35:13;16.00;99.90
20795;DHT22;28087;-33.874;151.240;2022-07-06T11:38:27;16.10;99.90
20795;DHT22;28087;-33.874;151.240;2022-07-06T11:41:07;16.00;99.90
20795;DHT22;28087;-33.874;151.240;2022-07-06T11:43:45;16.10;99.90
20795;DHT22;28087;-33.874;151.240;2022-07-06T11:46:30;16.00;99.90
20795;DHT22;28087;-33.874;151.240;2022-07-06T11:49:10;16.00;99.90
20795;DHT22;28087;-33.874;151.240;2022-07-06T11:51:51;16.00;99.90
20795;DHT22;28087;-33.874;151.240;2022-07-06T11:54:33;16.00;99.90
20795;DHT22;28087;-33.874;151.240;2022-07-06T11:57:13;16.00;99.90
20795;DHT22;28087;-33.874;151.240;2022-07-06T11:59:51;16.00;99.90
20795;DHT22;28087;-33.874;151.240;2022-07-06T12:02:29;16.00;99.90
20795;DHT22;28087;-33.874;151.240;2022-07-06T12:05:30;16.00;99.90
20795;DHT22;28087;-33.874;151.240;2022-07-06T12:08:09;16.00;99.90
20795;DHT22;28087;-33.874;151.240;2022-07-06T12:10:47;16.00;99.90
20795;DHT22;28087;-33.874;151.240;2022-07-06T12:13:27;16.10;99.90
20795;DHT22;28087;-33.874;151.240;2022-07-06T12:16:28;16.10;99.90
20795;DHT22;28087;-33.874;151.240;2022-07-06T12:19:09;16.10;99.90
20795;DHT22;28087;-33.874;151.240;2022-07-06T12:21:47;16.10;99.90
20795;DHT22;28087;-33.874;151.240;2022-07-06T12:27:19;16.10;99.90
20795;DHT22;28087;-33.874;151.240;2022-07-06T12:30:12;16.20;99.90
20795;DHT22;28087;-33.874;151.240;2022-07-06T12:33:14;16.20;99.90
20795;DHT22;28087;-33.874;151.240;2022-07-06T12:38:45;16.10;99.90
20795;DHT22;28087;-33.874;151.240;2022-07-06T12:41:32;16.20;99.90
20795;DHT22;28087;-33.874;151.240;2022-07-06T12:44:20;16.00;99.90
20795;DHT22;28087;-33.874;151.240;2022-07-06T12:47:16;16.10;99.90
20795;DHT22;28087;-33.874;151.240;2022-07-06T12:52:46;16.00;99.90
20795;DHT22;28087;-33.874;151.240;2022-07-06T12:55:27;16.00;99.90
20795;DHT22;28087;-33.874;151.240;2022-07-06T12:58:19;16.00;99.90
20795;DHT22;28087;-33.874;151.240;2022-07-06T13:00:57;15.90;99.90
20795;DHT22;28087;-33.874;151.240;2022-07-06T13:03:42;15.90;99.90
20795;DHT22;28087;-33.874;151.240;2022-07-06T13:06:31;16.00;99.90
20795;DHT22;28087;-33.874;151.240;2022-07-06T13:09:08;16.00;99.90
20795;DHT22;28087;-33.874;151.240;2022-07-06T13:11:55;15.90;99.90
20795;DHT22;28087;-33.874;151.240;2022-07-06T13:14:43;16.00;99.90
20795;DHT22;28087;-33.874;151.240;2022-07-06T13:17:19;15.90;99.90
20795;DHT22;28087;-33.874;151.240;2022-07-06T13:19:59;16.00;99.90
20795;DHT22;28087;-33.874;151.240;2022-07-06T13:22:38;15.80;99.90
20795;DHT22;28087;-33.874;151.240;2022-07-06T13:25:14;15.80;99.90
20795;DHT22;28087;-33.874;151.240;2022-07-06T13:27:50;15.80;99.90
20795;DHT22;28087;-33.874;151.240;2022-07-06T13:30:31;15.80;99.90
20795;DHT22;28087;-33.874;151.240;2022-07-06T13:33:10;15.70;99.90
20795;DHT22;28087;-33.874;151.240;2022-07-06T13:35:49;15.70;99.90
20795;DHT22;28087;-33.874;151.240;2022-07-06T13:38:25;15.80;99.90
20795;DHT22;28087;-33.874;151.240;2022-07-06T13:41:04;15.80;99.90
20795;DHT22;28087;-33.874;151.240;2022-07-06T13:43:41;15.60;99.90
20795;DHT22;28087;-33.874;151.240;2022-07-06T13:46:18;15.70;99.90
20795;DHT22;28087;-33.874;151.240;2022-07-06T13:51:41;15.60;99.90
20795;DHT22;28087;-33.874;151.240;2022-07-06T13:56:58;15.60;99.90
20795;DHT22;28087;-33.874;151.240;2022-07-06T13:59:39;15.40;99.90
20795;DHT22;28087;-33.874;151.240;2022-07-06T14:02:18;15.60;99.90
20795;DHT22;28087;-33.874;151.240;2022-07-06T14:04:58;15.70;99.90
20795;DHT22;28087;-33.874;151.240;2022-07-06T14:15:33;15.70;99.90
20795;DHT22;28087;-33.874;151.240;2022-07-06T14:18:10;15.70;99.90
20795;DHT22;28087;-33.874;151.240;2022-07-06T14:20:53;15.70;99.90
20795;DHT22;28087;-33.874;151.240;2022-07-06T14:26:21;15.60;99.90
20795;DHT22;28087;-33.874;151.240;2022-07-06T14:29:13;15.70;99.90
20795;DHT22;28087;-33.874;151.240;2022-07-06T14:31:50;15.60;99.90
20795;DHT22;28087;-33.874;151.240;2022-07-06T14:34:37;15.70;99.90
20795;DHT22;28087;-33.874;151.240;2022-07-06T14:37:17;15.60;99.90
20795;DHT22;28087;-33.874;151.240;2022-07-06T14:40:08;15.60;99.90
20795;DHT22;28087;-33.874;151.240;2022-07-06T14:42:45;15.30;99.90
20795;DHT22;28087;-33.874;151.240;2022-07-06T14:48:13;15.40;99.90
20795;DHT22;28087;-33.874;151.240;2022-07-06T14:50:52;15.60;99.90
20795;DHT22;28087;-33.874;151.240;2022-07-06T14:54:09;15.60;99.90
20795;DHT22;28087;-33.874;151.240;2022-07-06T14:59:33;15.60;99.90
20795;DHT22;28087;-33.874;151.240;2022-07-06T15:02:16;15.60;99.90
20795;DHT22;28087;-33.874;151.240;2022-07-06T15:05:04;15.60;99.90
20795;DHT22;28087;-33.874;151.240;2022-07-06T15:07:41;15.60;99.90
20795;DHT22;28087;-33.874;151.240;2022-07-06T15:13:09;15.60;99.90
20795;DHT22;28087;-33.874;151.240;2022-07-06T15:18:29;15.60;99.90
20795;DHT22;28087;-33.874;151.240;2022-07-06T15:21:06;15.50;99.90
20795;DHT22;28087;-33.874;151.240;2022-07-06T15:23:45;15.60;99.90
20795;DHT22;28087;-33.874;151.240;2022-07-06T15:26:33;15.60;99.90
20795;DHT22;28087;-33.874;151.240;2022-07-06T15:29:16;15.70;99.90
20795;DHT22;28087;-33.874;151.240;2022-07-06T15:31:52;15.50;99.90
20795;DHT22;28087;-33.874;151.240;2022-07-06T15:34:29;15.40;99.90
20795;DHT22;28087;-33.874;151.240;2022-07-06T15:37:16;15.40;99.90
20795;DHT22;28087;-33.874;151.240;2022-07-06T15:39:54;15.40;99.90
20795;DHT22;28087;-33.874;151.240;2022-07-06T15:42:38;15.40;99.90
20795;DHT22;28087;-33.874;151.240;2022-07-06T15:45:22;15.40;99.90
20795;DHT22;28087;-33.874;151.240;2022-07-06T15:48:09;15.50;99.90
20795;DHT22;28087;-33.874;151.240;2022-07-06T15:50:54;15.40;99.90
20795;DHT22;28087;-33.874;151.240;2022-07-06T15:53:32;15.50;99.90
20795;DHT22;28087;-33.874;151.240;2022-07-06T15:56:16;15.40;99.90
20795;DHT22;28087;-33.874;151.240;2022-07-06T15:58:54;15.40;99.90
20795;DHT22;28087;-33.874;151.240;2022-07-06T16:01:42;15.40;99.90
20795;DHT22;28087;-33.874;151.240;2022-07-06T16:04:41;15.40;99.90
20795;DHT22;28087;-33.874;151.240;2022-07-06T16:07:34;15.40;99.90
20795;DHT22;28087;-33.874;151.240;2022-07-06T16:10:32;15.40;99.90
20795;DHT22;28087;-33.874;151.240;2022-07-06T16:13:11;15.40;99.90
20795;DHT22;28087;-33.874;151.240;2022-07-06T16:15:50;15.40;99.90
20795;DHT22;28087;-33.874;151.240;2022-07-06T16:18:31;15.40;99.90
20795;DHT22;28087;-33.874;151.240;2022-07-06T16:21:07;15.40;99.90
20795;DHT22;28087;-33.874;151.240;2022-07-06T16:23:45;15.40;99.90
20795;DHT22;28087;-33.874;151.240;2022-07-06T16:26:22;15.50;99.90
20795;DHT22;28087;-33.874;151.240;2022-07-06T16:29:02;15.40;99.90
20795;DHT22;28087;-33.874;151.240;2022-07-06T16:31:38;15.50;99.90
20795;DHT22;28087;-33.874;151.240;2022-07-06T16:34:23;15.50;99.90
20795;DHT22;28087;-33.874;151.240;2022-07-06T16:37:15;15.50;99.90
20795;DHT22;28087;-33.874;151.240;2022-07-06T16:40:14;15.40;99.90
20795;DHT22;28087;-33.874;151.240;2022-07-06T16:42:52;15.40;99.90
20795;DHT22;28087;-33.874;151.240;2022-07-06T16:45:32;15.40;99.90
20795;DHT22;28087;-33.874;151.240;2022-07-06T16:48:23;15.40;99.90
20795;DHT22;28087;-33.874;151.240;2022-07-06T16:51:05;15.40;99.90
20795;DHT22;28087;-33.874;151.240;2022-07-06T16:53:43;15.40;99.90
20795;DHT22;28087;-33.874;151.240;2022-07-06T16:56:25;15.40;99.90
20795;DHT22;28087;-33.874;151.240;2022-07-06T16:59:15;15.40;99.90
20795;DHT22;28087;-33.874;151.240;2022-07-06T17:01:53;15.40;99.90
20795;DHT22;28087;-33.874;151.240;2022-07-06T17:04:43;15.40;99.90
20795;DHT22;28087;-33.874;151.240;2022-07-06T17:07:22;15.40;99.90
20795;DHT22;28087;-33.874;151.240;2022-07-06T17:10:11;15.40;99.90
20795;DHT22;28087;-33.874;151.240;2022-07-06T17:12:58;15.40;99.90
20795;DHT22;28087;-33.874;151.240;2022-07-06T17:15:53;15.40;99.90
20795;DHT22;28087;-33.874;151.240;2022-07-06T17:18:47;15.40;99.90
20795;DHT22;28087;-33.874;151.240;2022-07-06T17:21:38;15.40;99.90
20795;DHT22;28087;-33.874;151.240;2022-07-06T17:24:28;15.30;99.90
20795;DHT22;28087;-33.874;151.240;2022-07-06T17:27:06;15.40;99.90
20795;DHT22;28087;-33.874;151.240;2022-07-06T17:29:48;15.40;99.90
20795;DHT22;28087;-33.874;151.240;2022-07-06T17:32:29;15.40;99.90
20795;DHT22;28087;-33.874;151.240;2022-07-06T17:35:11;15.30;99.90
20795;DHT22;28087;-33.874;151.240;2022-07-06T17:37:49;15.40;99.90
20795;DHT22;28087;-33.874;151.240;2022-07-06T17:40:31;15.30;99.90
20795;DHT22;28087;-33.874;151.240;2022-07-06T17:43:23;15.40;99.90
20795;DHT22;28087;-33.874;151.240;2022-07-06T17:46:18;15.30;99.90
20795;DHT22;28087;-33.874;151.240;2022-07-06T17:49:09;15.30;99.90
20795;DHT22;28087;-33.874;151.240;2022-07-06T17:51:51;15.30;99.90
20795;DHT22;28087;-33.874;151.240;2022-07-06T17:54:38;15.30;99.90
20795;DHT22;28087;-33.874;151.240;2022-07-06T17:57:22;15.30;99.90
20795;DHT22;28087;-33.874;151.240;2022-07-06T18:00:08;15.30;99.90
20795;DHT22;28087;-33.874;151.240;2022-07-06T18:02:55;15.40;99.90
20795;DHT22;28087;-33.874;151.240;2022-07-06T18:05:33;15.30;99.90
20795;DHT22;28087;-33.874;151.240;2022-07-06T18:08:23;15.30;99.90
20795;DHT22;28087;-33.874;151.240;2022-07-06T18:11:01;15.30;99.90
20795;DHT22;28087;-33.874;151.240;2022-07-06T18:13:55;15.30;99.90
20795;DHT22;28087;-33.874;151.240;2022-07-06T18:16:35;15.30;99.90
20795;DHT22;28087;-33.874;151.240;2022-07-06T18:19:15;15.30;99.90